createdAt,value
2019-02-18T00:00:06.289Z,56.67
2019-02-18T00:03:10.848Z,66.60
2019-02-18T00:06:13.422Z,58.43
2019-02-18T00:09:16.760Z,54.17
2019-02-18T00:12:19.629Z,63.43
2019-02-18T00:15:22.366Z,68.77
2019-02-18T00:18:26.176Z,61.10
2019-02-18T00:21:28.844Z,62.00
2019-02-18T00:24:33.321Z,59.23
2019-02-18T00:27:36.009Z,64.23
2019-02-18T00:30:38.729Z,58.07
2019-02-18T00:33:41.421Z,50.67
2019-02-18T00:36:47.013Z,71.00
2019-02-18T00:39:49.718Z,59.70
2019-02-18T00:42:55.505Z,55.13
2019-02-18T00:45:59.378Z,52.77
2019-02-18T00:49:02.221Z,45.50
2019-02-18T00:52:05.032Z,50.33
2019-02-18T00:55:08.057Z,52.43
2019-02-18T00:58:13.835Z,48.63
2019-02-18T01:01:17.575Z,40.67
2019-02-18T01:04:23.748Z,45.73
2019-02-18T01:07:34.430Z,37.17
2019-02-18T01:10:33.797Z,34.27
2019-02-18T01:13:36.648Z,39.20
2019-02-18T01:16:39.485Z,33.57
2019-02-18T01:19:42.285Z,33.13
2019-02-18T01:22:45.131Z,31.53
2019-02-18T01:25:50.447Z,28.47
2019-02-18T01:28:53.124Z,33.70
2019-02-18T01:31:56.002Z,26.43
2019-02-18T01:34:58.814Z,27.60
2019-02-18T01:38:01.457Z,24.87
2019-02-18T01:41:04.153Z,23.17
2019-02-18T01:44:08.630Z,24.07
2019-02-18T01:47:11.540Z,26.27
2019-02-18T01:50:14.385Z,25.70
2019-02-18T01:53:17.150Z,25.93
2019-02-18T01:56:19.898Z,26.93
2019-02-18T01:59:22.678Z,23.50
2019-02-18T02:02:25.507Z,34.63
2019-02-18T02:05:33.266Z,30.47
2019-02-18T02:08:36.061Z,34.13
2019-02-18T02:11:38.813Z,43.03
2019-02-18T02:14:42.302Z,41.50
2019-02-18T02:17:46.180Z,36.87
2019-02-18T02:20:49.082Z,35.23
2019-02-18T02:23:51.906Z,32.30
2019-02-18T02:26:54.592Z,37.80
2019-02-18T02:30:07.113Z,45.30
2019-02-18T02:33:09.865Z,38.57
2019-02-18T02:36:13.553Z,32.83
2019-02-18T02:39:17.380Z,33.43
2019-02-18T02:42:20.217Z,45.77
2019-02-18T02:45:22.920Z,54.53
2019-02-18T02:48:25.696Z,46.40
2019-02-18T02:51:28.382Z,38.43
2019-02-18T02:54:31.235Z,47.47
2019-02-18T02:57:34.027Z,48.07
2019-02-18T03:00:37.183Z,51.00
2019-02-18T03:03:39.963Z,40.37
2019-02-18T03:06:42.686Z,48.13
2019-02-18T03:09:45.729Z,44.33
2019-02-18T03:12:51.325Z,46.20
2019-02-18T03:15:56.174Z,49.37
2019-02-18T03:18:58.940Z,44.23
2019-02-18T03:22:01.733Z,49.83
2019-02-18T03:25:23.239Z,51.53
2019-02-18T03:28:59.007Z,50.47
2019-02-18T03:32:01.815Z,54.40
2019-02-18T03:35:11.958Z,48.27
2019-02-18T03:38:14.685Z,53.83
2019-02-18T03:41:17.347Z,57.60
2019-02-18T03:44:20.130Z,53.97
2019-02-18T03:47:23.069Z,49.03
2019-02-18T03:50:25.733Z,55.00
2019-02-18T03:53:28.510Z,47.33
2019-02-18T03:56:31.233Z,57.97
2019-02-18T03:59:34.038Z,50.93
2019-02-18T04:02:37.025Z,56.57
2019-02-18T04:05:39.731Z,47.57
2019-02-18T04:08:43.398Z,58.83
2019-02-18T04:11:46.388Z,58.17
2019-02-18T04:14:49.057Z,49.63
2019-02-18T04:17:51.936Z,54.80
2019-02-18T04:20:55.765Z,56.13
2019-02-18T04:23:58.906Z,53.10
2019-02-18T04:27:01.617Z,58.67
2019-02-18T04:30:04.491Z,62.67
2019-02-18T04:33:07.312Z,55.53
2019-02-18T04:36:10.107Z,53.37
2019-02-18T04:39:12.817Z,61.27
2019-02-18T04:42:15.597Z,54.93
2019-02-18T04:45:18.366Z,57.43
2019-02-18T04:48:21.076Z,64.67
2019-02-18T04:51:23.842Z,60.73
2019-02-18T04:54:26.693Z,62.43
2019-02-18T04:57:31.377Z,64.37
2019-02-18T05:00:34.022Z,62.03
2019-02-18T05:03:36.840Z,60.77
2019-02-18T05:06:39.666Z,53.17
2019-02-18T05:09:42.550Z,60.77
2019-02-18T05:12:45.345Z,60.70
2019-02-18T05:15:48.185Z,66.80
2019-02-18T05:18:50.963Z,64.00
2019-02-18T05:21:53.699Z,62.00
2019-02-18T05:24:56.495Z,59.90
2019-02-18T05:27:59.424Z,58.33
2019-02-18T05:31:02.125Z,61.70
2019-02-18T05:34:04.915Z,69.13
2019-02-18T05:37:07.723Z,76.00
2019-02-18T05:40:11.464Z,57.30
2019-02-18T05:43:14.434Z,65.73
2019-02-18T05:46:17.387Z,61.87
2019-02-18T05:49:20.250Z,63.33
2019-02-18T05:52:22.987Z,68.20
2019-02-18T05:55:25.804Z,66.53
2019-02-18T05:58:28.568Z,69.23
2019-02-18T06:01:31.394Z,66.87
2019-02-18T06:04:34.123Z,73.00
2019-02-18T06:07:37.341Z,80.17
2019-02-18T06:10:41.314Z,82.87
2019-02-18T06:13:44.033Z,78.53
2019-02-18T06:16:48.021Z,74.40
2019-02-18T06:19:50.857Z,90.50
2019-02-18T06:22:53.718Z,98.90
2019-02-18T06:25:56.611Z,80.67
2019-02-18T06:28:59.386Z,83.30
2019-02-18T06:32:02.247Z,83.50
2019-02-18T06:35:05.092Z,88.10
2019-02-18T06:38:07.828Z,84.33
2019-02-18T06:41:10.639Z,72.30
2019-02-18T06:44:13.394Z,73.23
2019-02-18T06:47:21.201Z,92.73
2019-02-18T06:50:24.164Z,69.70
2019-02-18T06:53:26.985Z,85.03
2019-02-18T06:57:01.206Z,87.80
2019-02-18T07:00:36.550Z,74.77
2019-02-18T07:04:01.610Z,80.00
2019-02-18T07:07:20.294Z,85.30
2019-02-18T07:10:52.568Z,81.13
2019-02-18T07:13:55.714Z,75.90
2019-02-18T07:16:58.499Z,76.23
2019-02-18T07:20:01.365Z,81.83
2019-02-18T07:23:04.139Z,81.37
2019-02-18T07:26:07.059Z,97.80
2019-02-18T07:29:09.970Z,92.80
2019-02-18T07:32:12.671Z,78.67
2019-02-18T07:35:15.426Z,84.50
2019-02-18T07:38:18.524Z,91.27
2019-02-18T07:41:21.229Z,86.40
2019-02-18T07:44:23.983Z,99.73
2019-02-18T07:47:26.682Z,86.10
2019-02-18T07:50:29.550Z,105.23
2019-02-18T07:53:32.290Z,106.53
2019-02-18T07:56:35.023Z,102.93
2019-02-18T07:59:37.855Z,105.07
2019-02-18T08:02:40.634Z,123.83
2019-02-18T08:05:43.598Z,132.13
2019-02-18T08:08:46.391Z,136.43
2019-02-18T08:11:49.120Z,132.20
2019-02-18T08:14:51.908Z,134.43
2019-02-18T08:17:54.658Z,112.93
2019-02-18T08:20:57.555Z,133.37
2019-02-18T08:24:00.516Z,160.83
2019-02-18T08:27:03.376Z,148.33
2019-02-18T08:30:07.447Z,142.97
2019-02-18T08:33:10.224Z,84.20
2019-02-18T08:36:13.081Z,141.97
2019-02-18T08:39:15.829Z,142.43
2019-02-18T08:42:20.627Z,126.57
2019-02-18T08:45:23.442Z,122.07
2019-02-18T08:48:26.242Z,119.27
2019-02-18T08:51:29.112Z,124.50
2019-02-18T08:54:32.990Z,116.57
2019-02-18T08:57:35.858Z,104.50
2019-02-18T09:00:38.709Z,108.80
2019-02-18T09:03:41.650Z,104.13
2019-02-18T09:06:44.425Z,114.57
2019-02-18T09:09:47.185Z,97.67
2019-02-18T09:12:49.927Z,99.10
2019-02-18T09:15:59.768Z,96.27
2019-02-18T09:18:57.323Z,90.10
2019-02-18T09:22:18.141Z,94.17
2019-02-18T09:25:23.742Z,88.93
2019-02-18T09:28:26.551Z,88.17
2019-02-18T09:31:31.637Z,84.87
2019-02-18T09:34:34.319Z,74.70
2019-02-18T09:37:37.251Z,80.00
2019-02-18T09:40:45.101Z,82.53
2019-02-18T09:43:44.793Z,79.33
2019-02-18T09:46:47.670Z,82.77
2019-02-18T09:49:50.399Z,78.83
2019-02-18T09:52:53.182Z,68.53
2019-02-18T09:55:56.162Z,71.90
2019-02-18T09:58:59.037Z,70.00
2019-02-18T10:02:01.832Z,69.07
2019-02-18T10:05:04.675Z,70.33
2019-02-18T10:08:07.467Z,70.77
2019-02-18T10:11:10.379Z,62.97
2019-02-18T10:14:13.226Z,63.97
2019-02-18T10:17:16.010Z,65.67
2019-02-18T10:20:19.803Z,56.53
2019-02-18T10:23:22.585Z,67.73
2019-02-18T10:26:25.429Z,62.87
2019-02-18T10:29:28.760Z,65.63
2019-02-18T10:32:31.721Z,63.13
2019-02-18T10:35:34.395Z,66.53
2019-02-18T10:38:37.305Z,57.47
2019-02-18T10:41:40.289Z,50.73
2019-02-18T10:44:43.212Z,68.77
2019-02-18T10:47:45.962Z,63.37
2019-02-18T10:50:50.449Z,71.13
2019-02-18T10:53:53.321Z,62.67
2019-02-18T10:56:56.154Z,63.73
2019-02-18T10:59:59.389Z,66.07
2019-02-18T11:03:02.437Z,77.20
2019-02-18T11:06:06.279Z,71.83
2019-02-18T11:09:10.959Z,61.30
2019-02-18T11:12:13.871Z,64.37
2019-02-18T11:15:16.723Z,58.07
2019-02-18T11:18:19.996Z,61.07
2019-02-18T11:21:22.745Z,59.30
2019-02-18T11:24:25.563Z,62.33
2019-02-18T11:27:28.943Z,61.43
2019-02-18T11:30:31.737Z,52.03
2019-02-18T11:33:34.526Z,62.33
2019-02-18T11:36:37.868Z,63.90
2019-02-18T11:39:41.750Z,62.03
2019-02-18T11:42:44.672Z,64.67
2019-02-18T11:45:47.505Z,68.10
2019-02-18T11:48:50.355Z,57.30
2019-02-18T11:51:53.207Z,60.50
2019-02-18T11:54:56.147Z,60.57
2019-02-18T16:11:05.502Z,82.63
2019-02-18T16:18:03.284Z,71.90
2019-02-18T16:21:12.243Z,68.67
2019-02-18T16:24:19.931Z,79.10
2019-02-18T16:27:20.606Z,78.83
2019-02-18T16:30:23.651Z,77.90
2019-02-18T16:33:26.603Z,78.40
2019-02-18T16:36:29.401Z,70.00
2019-02-18T16:39:32.438Z,73.27
2019-02-18T16:42:35.471Z,73.67
2019-02-18T16:45:39.558Z,61.03
2019-02-18T16:48:43.693Z,74.00
2019-02-18T16:51:46.741Z,75.17
2019-02-18T16:54:49.574Z,68.23
2019-02-18T16:57:52.413Z,74.90
2019-02-18T17:00:57.692Z,71.03
2019-02-18T17:04:00.132Z,64.93
2019-02-18T17:07:02.932Z,70.63
2019-02-18T17:10:05.931Z,62.67
2019-02-18T17:13:08.753Z,68.63
2019-02-18T17:16:11.625Z,61.73
2019-02-18T17:19:14.484Z,71.67
2019-02-18T17:22:17.155Z,66.77
2019-02-18T17:25:20.105Z,62.83
2019-02-18T17:28:23.505Z,61.80
2019-02-18T17:31:26.314Z,54.90
2019-02-18T17:34:29.076Z,62.50
2019-02-18T17:37:32.338Z,59.57
2019-02-18T17:40:35.083Z,59.70
2019-02-18T17:43:38.202Z,61.60
2019-02-18T17:46:44.249Z,57.33
2019-02-18T17:49:47.037Z,52.33
2019-02-18T17:52:49.980Z,62.87
2019-02-18T17:55:52.802Z,55.07
2019-02-18T17:58:55.712Z,53.30
2019-02-18T18:01:58.526Z,51.90
2019-02-18T18:05:01.484Z,58.50
2019-02-18T18:08:04.420Z,53.73
2019-02-18T18:11:07.206Z,57.70
2019-02-18T18:14:09.997Z,48.90
2019-02-18T18:17:12.825Z,59.73
2019-02-18T18:20:15.732Z,56.30
2019-02-18T18:23:18.541Z,49.47
2019-02-18T18:26:21.327Z,51.60
2019-02-18T18:29:24.126Z,47.87
2019-02-18T18:32:27.029Z,61.07
2019-02-18T18:35:29.809Z,41.33
2019-02-18T18:38:35.630Z,47.37
2019-02-18T18:41:39.206Z,48.40
2019-02-18T18:44:41.978Z,40.10
2019-02-18T18:47:44.836Z,46.90
2019-02-18T18:50:47.829Z,45.67
2019-02-18T18:53:50.578Z,43.20
2019-02-18T18:56:53.483Z,35.67
2019-02-18T18:59:56.536Z,42.97
2019-02-18T19:02:59.361Z,43.50
2019-02-18T19:06:02.259Z,37.63
2019-02-18T19:09:05.412Z,44.63
2019-02-18T19:12:08.361Z,42.57
2019-02-18T19:15:11.653Z,38.50
2019-02-18T19:18:14.573Z,47.20
2019-02-18T19:21:17.357Z,41.27
2019-02-18T19:24:20.218Z,46.20
2019-02-18T19:27:23.142Z,46.97
2019-02-18T19:30:27.351Z,40.57
2019-02-18T19:33:30.351Z,47.20
2019-02-18T19:36:33.267Z,42.17
2019-02-18T19:39:36.188Z,49.17
2019-02-18T19:42:39.227Z,44.03
2019-02-18T19:45:42.111Z,57.13
2019-02-18T19:48:44.874Z,50.30
2019-02-18T19:51:47.846Z,45.73
2019-02-18T19:54:50.748Z,55.00
2019-02-18T19:57:53.724Z,50.70
2019-02-18T20:00:56.817Z,47.70
2019-02-18T20:03:59.825Z,53.27
2019-02-18T20:07:02.729Z,61.63
2019-02-18T20:10:06.028Z,48.10
2019-02-18T20:13:10.010Z,50.30
2019-02-18T20:16:12.930Z,49.23
2019-02-18T20:19:15.765Z,52.53
2019-02-18T20:22:18.628Z,51.83
2019-02-18T20:25:21.437Z,55.93
2019-02-18T20:28:24.266Z,61.10
2019-02-18T20:31:28.098Z,53.53
2019-02-18T20:34:30.987Z,55.87
2019-02-18T20:37:34.146Z,62.33
2019-02-18T20:40:37.164Z,65.00
2019-02-18T20:43:40.070Z,77.23
2019-02-18T20:46:43.022Z,65.13
2019-02-18T20:49:46.045Z,64.37
2019-02-18T20:52:48.983Z,68.27
2019-02-18T20:55:51.832Z,69.57
2019-02-18T20:58:54.819Z,79.10
2019-02-18T21:01:57.493Z,67.90
2019-02-18T21:05:00.818Z,77.90
2019-02-18T21:08:03.727Z,79.23
2019-02-18T21:11:06.417Z,71.60
2019-02-18T21:14:15.932Z,78.33
2019-02-18T21:17:14.503Z,69.57
2019-02-18T21:20:17.313Z,73.07
2019-02-18T21:23:20.437Z,77.63
2019-02-18T21:26:23.513Z,75.43
2019-02-18T21:29:26.311Z,78.63
2019-02-18T21:32:29.036Z,92.80
2019-02-18T21:35:32.821Z,81.87
2019-02-18T21:38:35.709Z,85.57
2019-02-18T21:41:38.608Z,81.53
2019-02-18T21:44:41.387Z,82.90
2019-02-18T21:47:44.234Z,85.80
2019-02-18T21:50:47.876Z,77.20
2019-02-18T21:53:50.553Z,92.77
2019-02-18T21:56:53.184Z,109.97
2019-02-18T21:59:55.903Z,71.47
2019-02-18T22:02:58.790Z,92.47
2019-02-18T22:06:01.517Z,79.47
2019-02-18T22:09:05.815Z,82.63
2019-02-18T22:12:09.660Z,87.73
2019-02-18T22:15:13.307Z,82.83
2019-02-18T22:18:16.046Z,84.17
2019-02-18T22:21:18.904Z,81.97
2019-02-18T22:24:21.609Z,95.47
2019-02-18T22:27:25.632Z,81.37
2019-02-18T22:30:28.403Z,81.33
2019-02-18T22:33:31.800Z,93.07
2019-02-18T22:36:34.620Z,90.67
2019-02-18T22:39:37.471Z,94.27
2019-02-18T22:42:40.249Z,75.23
2019-02-18T22:45:43.023Z,71.67
2019-02-18T22:48:45.709Z,87.13
2019-02-18T22:51:48.519Z,77.27
2019-02-18T22:54:51.209Z,100.47
2019-02-18T22:57:54.020Z,80.53
2019-02-18T23:00:59.049Z,91.30
2019-02-18T23:04:01.831Z,88.77
2019-02-18T23:07:04.683Z,107.57
2019-02-18T23:10:07.446Z,89.97
2019-02-18T23:13:10.137Z,95.40
2019-02-18T23:16:13.366Z,97.60
2019-02-18T23:19:16.150Z,82.87
2019-02-18T23:22:18.859Z,92.17
2019-02-18T23:25:22.317Z,82.43
2019-02-18T23:28:25.100Z,92.17
2019-02-18T23:31:29.952Z,93.37
2019-02-18T23:34:32.792Z,95.30
2019-02-18T23:37:35.667Z,91.30
2019-02-18T23:40:38.437Z,76.63
2019-02-18T23:43:41.138Z,80.80
2019-02-18T23:46:43.915Z,76.20
2019-02-18T23:49:46.621Z,81.07
2019-02-18T23:52:49.398Z,76.23
2019-02-18T23:55:52.137Z,88.27
2019-02-18T23:58:54.835Z,84.00
